createdAt,value
2022-12-11T00:02:05.717Z,22.92
2022-12-11T00:04:32.663Z,23.77
2022-12-11T00:06:59.551Z,22.55
2022-12-11T00:09:26.659Z,24.02
2022-12-11T00:11:53.673Z,23.10
2022-12-11T00:14:20.435Z,22.95
2022-12-11T00:16:48.646Z,23.65
2022-12-11T00:19:16.461Z,23.65
2022-12-11T00:21:43.284Z,24.73
2022-12-11T00:24:10.759Z,23.50
2022-12-11T00:26:37.561Z,22.30
2022-12-11T00:29:04.821Z,24.05
2022-12-11T00:31:31.841Z,23.67
2022-12-11T00:33:58.642Z,22.83
2022-12-11T00:36:26.618Z,22.92
2022-12-11T00:38:54.213Z,22.58
2022-12-11T00:41:21.430Z,25.05
2022-12-11T00:43:48.248Z,22.33
2022-12-11T00:46:15.252Z,22.35
2022-12-11T00:48:42.243Z,23.08
2022-12-11T00:51:09.850Z,22.42
2022-12-11T00:53:37.232Z,22.65
2022-12-11T00:56:13.338Z,21.88
2022-12-11T00:58:40.226Z,22.10
2022-12-11T01:01:13.402Z,23.65
2022-12-11T01:03:40.486Z,22.08
2022-12-11T01:06:08.190Z,22.42
2022-12-11T01:08:38.560Z,23.27
2022-12-11T01:11:09.391Z,21.40
2022-12-11T01:13:36.928Z,20.15
2022-12-11T01:16:12.780Z,21.50
2022-12-11T01:18:40.129Z,20.63
2022-12-11T01:21:09.153Z,19.15
2022-12-11T01:23:36.253Z,21.23
2022-12-11T01:26:11.697Z,19.70
2022-12-11T01:28:38.843Z,21.40
2022-12-11T01:31:10.190Z,20.60
2022-12-11T01:33:37.694Z,20.92
2022-12-11T01:36:14.292Z,23.52
2022-12-11T01:38:41.488Z,22.00
2022-12-11T01:41:09.425Z,21.70
2022-12-11T01:43:55.317Z,22.02
2022-12-11T01:46:22.426Z,20.85
2022-12-11T01:48:49.225Z,20.90
2022-12-11T01:51:17.106Z,20.30
2022-12-11T01:53:59.066Z,20.23
2022-12-11T01:56:26.597Z,20.38
2022-12-11T01:58:57.473Z,19.73
2022-12-11T02:01:51.663Z,17.95
2022-12-11T02:04:19.946Z,17.73
2022-12-11T02:06:50.346Z,17.25
2022-12-11T02:09:21.672Z,17.05
2022-12-11T02:12:00.284Z,18.52
2022-12-11T02:14:50.314Z,17.98
2022-12-11T02:17:42.065Z,17.58
2022-12-11T02:20:32.583Z,17.05
2022-12-11T02:23:23.447Z,17.35
2022-12-11T02:26:09.111Z,18.70
2022-12-11T02:28:48.068Z,15.93
2022-12-11T02:31:34.921Z,15.70
2022-12-11T02:34:20.074Z,17.48
2022-12-11T02:36:54.897Z,17.15
2022-12-11T02:39:23.113Z,15.55
2022-12-11T02:41:51.538Z,16.80
2022-12-11T02:44:24.815Z,16.55
2022-12-11T02:46:52.824Z,17.20
2022-12-11T02:49:21.188Z,16.13
2022-12-11T02:51:48.446Z,17.40
2022-12-11T02:54:27.563Z,16.80
2022-12-11T02:57:00.312Z,17.05
2022-12-11T02:59:35.018Z,16.05
2022-12-11T03:02:03.575Z,16.88
2022-12-11T03:04:31.173Z,16.17
2022-12-11T03:07:13.826Z,16.58
2022-12-11T03:09:45.117Z,16.45
2022-12-11T03:12:16.980Z,18.05
2022-12-11T03:14:44.245Z,16.70
2022-12-11T03:17:35.405Z,17.58
2022-12-11T03:20:27.068Z,16.10
2022-12-11T03:23:24.002Z,16.15
2022-12-11T03:25:53.888Z,16.02
2022-12-11T03:28:30.301Z,17.45
2022-12-11T03:30:58.636Z,15.90
2022-12-11T03:33:38.935Z,15.30
2022-12-11T03:36:12.762Z,14.50
2022-12-11T03:38:54.717Z,14.45
2022-12-11T03:41:24.795Z,15.63
2022-12-11T03:43:54.928Z,14.05
2022-12-11T03:46:24.975Z,14.55
2022-12-11T03:48:52.919Z,13.50
2022-12-11T03:51:21.469Z,13.70
2022-12-11T03:53:48.698Z,13.63
2022-12-11T03:56:18.017Z,13.10
2022-12-11T03:58:44.735Z,14.25
2022-12-11T04:01:12.066Z,13.93
2022-12-11T04:03:39.478Z,13.65
2022-12-11T04:06:06.553Z,13.50
2022-12-11T04:08:33.442Z,13.30
2022-12-11T04:11:18.790Z,12.80
2022-12-11T04:13:45.585Z,11.85
2022-12-11T04:16:12.423Z,12.20
2022-12-11T04:18:57.871Z,11.93
2022-12-11T04:21:43.173Z,11.55
2022-12-11T04:24:16.022Z,12.20
2022-12-11T04:26:47.276Z,11.15
2022-12-11T04:29:14.947Z,11.48
2022-12-11T04:31:41.777Z,10.98
2022-12-11T04:34:08.869Z,12.05
2022-12-11T04:36:35.994Z,11.35
2022-12-11T04:39:03.337Z,11.57
2022-12-11T04:41:30.064Z,11.90
2022-12-11T04:43:56.847Z,12.13
2022-12-11T04:46:25.332Z,11.20
2022-12-11T04:48:57.397Z,13.73
2022-12-11T04:51:25.109Z,13.05
2022-12-11T04:53:52.063Z,12.00
2022-12-11T04:56:19.449Z,11.27
2022-12-11T04:58:48.457Z,13.40
2022-12-11T05:01:19.699Z,12.40
2022-12-11T05:03:47.293Z,12.43
2022-12-11T05:06:14.375Z,14.70
2022-12-11T05:08:42.962Z,14.88
2022-12-11T05:11:12.039Z,15.45
2022-12-11T05:13:38.940Z,12.40
2022-12-11T05:16:07.383Z,14.32
2022-12-11T05:18:34.474Z,11.65
2022-12-11T05:21:04.154Z,12.32
2022-12-11T05:23:31.132Z,11.68
2022-12-11T05:26:03.850Z,12.93
2022-12-11T05:28:32.927Z,11.80
2022-12-11T05:31:02.791Z,12.95
2022-12-11T05:33:30.520Z,12.45
2022-12-11T05:35:57.566Z,12.13
2022-12-11T05:38:24.344Z,11.65
2022-12-11T05:41:02.900Z,11.95
2022-12-11T05:43:35.838Z,10.30
2022-12-11T05:46:11.372Z,11.00
2022-12-11T05:48:39.263Z,10.75
2022-12-11T05:51:07.159Z,10.55
2022-12-11T05:53:35.641Z,10.55
2022-12-11T05:56:04.935Z,11.25
2022-12-11T05:58:32.355Z,10.60
2022-12-11T06:00:59.826Z,10.43
2022-12-11T06:03:26.798Z,10.25
2022-12-11T06:05:53.978Z,9.35
2022-12-11T06:08:20.769Z,11.05
2022-12-11T06:10:50.885Z,9.60
2022-12-11T06:13:17.768Z,9.50
2022-12-11T06:15:44.871Z,9.80
2022-12-11T06:18:11.762Z,9.82
2022-12-11T06:20:38.887Z,11.05
2022-12-11T06:23:05.869Z,17.23
2022-12-11T06:25:33.007Z,14.93
2022-12-11T06:28:00.081Z,11.63
2022-12-11T06:30:38.874Z,10.02
2022-12-11T06:33:10.246Z,9.07
2022-12-11T06:35:42.108Z,9.20
2022-12-11T06:38:10.839Z,9.95
2022-12-11T06:40:38.232Z,9.30
2022-12-11T06:43:05.027Z,8.85
2022-12-11T06:45:31.754Z,9.27
2022-12-11T06:47:59.002Z,8.73
2022-12-11T06:50:27.890Z,8.55
2022-12-11T06:52:56.478Z,8.65
2022-12-11T06:55:23.401Z,8.20
2022-12-11T06:57:50.132Z,9.73
2022-12-11T07:00:17.229Z,8.73
2022-12-11T07:02:44.010Z,8.77
2022-12-11T07:05:11.124Z,8.70
2022-12-11T07:07:38.105Z,9.13
2022-12-11T07:10:08.366Z,9.40
2022-12-11T07:12:36.276Z,11.65
2022-12-11T07:15:04.046Z,15.52
2022-12-11T07:17:30.879Z,17.52
2022-12-11T07:19:57.720Z,15.20
2022-12-11T07:22:24.768Z,12.45
2022-12-11T07:24:51.566Z,10.63
2022-12-11T07:27:18.263Z,14.90
2022-12-11T07:29:45.053Z,14.43
2022-12-11T07:32:11.867Z,13.55
2022-12-11T07:34:39.067Z,9.90
2022-12-11T07:37:05.816Z,9.27
2022-12-11T07:39:33.049Z,9.60
2022-12-11T07:41:59.923Z,9.45
2022-12-11T07:44:26.829Z,9.75
2022-12-11T07:46:53.528Z,11.15
2022-12-11T07:49:20.314Z,11.90
2022-12-11T07:51:47.029Z,10.70
2022-12-11T07:54:16.739Z,10.40
2022-12-11T07:56:46.524Z,10.35
2022-12-11T07:59:16.914Z,10.30
2022-12-11T08:01:44.238Z,10.05
2022-12-11T08:04:12.664Z,11.10
2022-12-11T08:06:40.641Z,10.65
2022-12-11T08:09:09.936Z,10.30
2022-12-11T08:11:36.784Z,11.38
2022-12-11T08:14:05.880Z,11.27
2022-12-11T08:16:33.011Z,11.50
2022-12-11T08:19:00.028Z,12.30
2022-12-11T08:21:28.210Z,13.25
2022-12-11T08:23:56.407Z,13.00
2022-12-11T08:26:26.243Z,13.15
2022-12-11T08:28:53.774Z,14.00
2022-12-11T08:31:21.274Z,12.48
2022-12-11T08:33:49.303Z,12.60
2022-12-11T08:36:21.038Z,14.30
2022-12-11T08:38:48.532Z,13.60
2022-12-11T08:41:19.786Z,15.05
2022-12-11T08:43:46.977Z,15.43
2022-12-11T08:46:14.240Z,15.85
2022-12-11T08:48:42.650Z,14.98
2022-12-11T08:51:13.629Z,14.30
2022-12-11T08:53:40.986Z,14.80
2022-12-11T08:56:13.592Z,15.30
2022-12-11T08:58:40.444Z,14.38
2022-12-11T09:01:19.234Z,15.85
2022-12-11T09:03:45.977Z,14.20
2022-12-11T09:06:15.533Z,16.13
2022-12-11T09:08:50.234Z,14.32
2022-12-11T09:11:23.708Z,15.32
2022-12-11T09:13:50.629Z,16.08
2022-12-11T09:16:19.580Z,15.10
2022-12-11T09:18:48.164Z,15.82
2022-12-11T09:21:18.130Z,15.40
2022-12-11T09:23:45.053Z,15.70
2022-12-11T09:26:15.539Z,16.13
2022-12-11T09:28:46.568Z,18.05
2022-12-11T09:31:16.345Z,15.07
2022-12-11T09:33:43.845Z,14.70
2022-12-11T09:36:12.116Z,13.85
2022-12-11T09:38:39.316Z,13.30
2022-12-11T09:41:21.594Z,13.85
2022-12-11T09:43:57.601Z,14.30
2022-12-11T09:46:26.910Z,15.75
2022-12-11T09:48:56.405Z,15.23
2022-12-11T09:51:44.679Z,16.25
2022-12-11T09:54:14.209Z,13.95
2022-12-11T09:57:22.581Z,13.43
2022-12-11T10:00:20.030Z,16.15
2022-12-11T10:03:23.751Z,14.50
2022-12-11T10:06:07.348Z,12.48
2022-12-11T10:08:52.833Z,13.93
2022-12-11T10:11:34.822Z,13.77
2022-12-11T10:14:04.616Z,13.02
2022-12-11T10:16:37.530Z,12.00
2022-12-11T10:19:04.573Z,12.80
2022-12-11T10:21:40.137Z,13.05
2022-12-11T10:24:40.803Z,11.70
2022-12-11T10:27:21.916Z,10.70
2022-12-11T10:30:00.034Z,11.05
2022-12-11T10:32:43.068Z,11.27
2022-12-11T10:35:31.106Z,10.25
2022-12-11T10:38:23.822Z,9.88
2022-12-11T10:41:00.897Z,10.00
2022-12-11T10:43:43.349Z,10.65
2022-12-11T10:46:24.980Z,10.27
2022-12-11T10:48:54.627Z,9.60
2022-12-11T10:51:24.284Z,10.32
2022-12-11T10:53:57.120Z,18.60
2022-12-11T10:56:29.140Z,13.07
2022-12-11T10:58:57.687Z,11.35
2022-12-11T11:01:27.763Z,10.63
2022-12-11T11:04:06.278Z,12.23
2022-12-11T11:06:33.300Z,16.35
2022-12-11T11:09:01.765Z,10.32
2022-12-11T11:11:35.110Z,13.25
2022-12-11T11:14:13.979Z,10.00
2022-12-11T11:16:42.764Z,11.20
2022-12-11T11:19:29.730Z,10.07
2022-12-11T11:21:59.179Z,10.77
2022-12-11T11:24:34.943Z,12.52
2022-12-11T11:27:13.303Z,10.57
2022-12-11T11:29:41.727Z,10.27
2022-12-11T11:32:23.708Z,10.82
2022-12-11T11:34:50.835Z,9.55
2022-12-11T11:37:25.755Z,10.95
2022-12-11T11:39:57.859Z,12.18
2022-12-11T11:42:37.734Z,9.13
2022-12-11T11:45:21.771Z,9.85
2022-12-11T11:48:18.956Z,9.85
2022-12-11T11:50:50.380Z,12.25
2022-12-11T11:53:27.336Z,10.25
2022-12-11T11:56:07.092Z,11.35
2022-12-11T11:58:43.353Z,10.70
2022-12-11T12:01:19.504Z,12.23
2022-12-11T12:03:48.719Z,11.25
2022-12-11T12:06:32.509Z,16.35
2022-12-11T12:09:25.723Z,12.80
2022-12-11T12:12:14.949Z,15.05
2022-12-11T12:15:01.293Z,11.77
2022-12-11T12:17:49.249Z,11.15
2022-12-11T12:20:51.363Z,9.57
2022-12-11T12:23:37.136Z,9.00
2022-12-11T12:26:29.448Z,11.07
2022-12-11T12:29:11.921Z,9.50
2022-12-11T12:31:55.584Z,10.13
2022-12-11T12:34:34.770Z,9.02
2022-12-11T12:37:22.853Z,9.70
2022-12-11T12:40:13.804Z,9.65
2022-12-11T12:42:59.468Z,9.07
2022-12-11T12:45:53.251Z,9.40
2022-12-11T12:48:23.883Z,9.85
2022-12-11T12:50:51.595Z,9.45
2022-12-11T12:53:26.418Z,15.20
2022-12-11T12:55:53.677Z,9.25
2022-12-11T12:58:27.628Z,9.90
2022-12-11T13:00:54.997Z,9.13
2022-12-11T13:03:30.878Z,10.38
2022-12-11T13:06:02.530Z,11.50
2022-12-11T13:08:45.992Z,10.57
2022-12-11T13:11:15.358Z,9.57
2022-12-11T13:13:47.969Z,9.20
2022-12-11T13:16:18.332Z,7.82
2022-12-11T13:18:49.882Z,7.22
2022-12-11T13:21:41.133Z,6.93
2022-12-11T13:24:20.034Z,8.20
2022-12-11T13:26:48.081Z,7.25
2022-12-11T13:29:39.569Z,6.82
2022-12-11T13:32:09.440Z,4.97
2022-12-11T13:34:42.408Z,5.78
2022-12-11T13:37:36.674Z,5.70
2022-12-11T13:40:08.941Z,6.45
2022-12-11T13:42:44.274Z,7.10
2022-12-11T13:45:26.674Z,6.40
2022-12-11T13:47:54.337Z,7.43
2022-12-11T13:50:33.113Z,7.75
2022-12-11T13:53:02.466Z,7.88
2022-12-11T13:55:32.806Z,7.88
2022-12-11T13:58:00.575Z,6.88
2022-12-11T14:00:30.432Z,7.97
2022-12-11T14:03:01.283Z,7.15
2022-12-11T14:05:29.040Z,7.10
2022-12-11T14:07:58.819Z,7.63
2022-12-11T14:10:32.038Z,6.90
2022-12-11T14:13:31.411Z,6.28
2022-12-11T14:15:58.219Z,7.10
2022-12-11T14:18:29.054Z,8.38
2022-12-11T14:20:59.052Z,8.40
2022-12-11T14:23:28.146Z,7.25
2022-12-11T14:25:56.477Z,6.88
2022-12-11T14:28:27.597Z,6.88
2022-12-11T14:30:59.264Z,6.80
2022-12-11T14:33:32.758Z,7.75
2022-12-11T14:36:01.205Z,7.63
2022-12-11T14:38:57.223Z,7.55
2022-12-11T14:41:44.883Z,6.70
2022-12-11T14:44:17.173Z,7.18
2022-12-11T14:46:51.230Z,7.50
2022-12-11T14:49:22.020Z,6.55
2022-12-11T14:51:50.048Z,13.02
2022-12-11T14:54:36.707Z,6.93
2022-12-11T14:57:06.690Z,15.45
2022-12-11T14:59:44.532Z,21.63
2022-12-11T15:02:34.690Z,8.65
2022-12-11T15:05:20.366Z,9.07
2022-12-11T15:08:02.727Z,8.77
2022-12-11T15:10:41.098Z,6.95
2022-12-11T15:13:09.357Z,11.77
2022-12-11T15:15:46.248Z,15.60
2022-12-11T15:18:34.827Z,18.35
2022-12-11T15:21:04.216Z,45.88
2022-12-11T15:23:31.131Z,18.30
2022-12-11T15:26:00.543Z,19.23
2022-12-11T15:28:30.314Z,42.15
2022-12-11T15:31:00.716Z,41.58
2022-12-11T15:33:33.906Z,24.80
2022-12-11T15:36:06.677Z,8.10
2022-12-11T15:38:34.866Z,7.43
2022-12-11T15:41:03.053Z,9.32
2022-12-11T15:43:34.686Z,8.95
2022-12-11T15:46:02.877Z,7.57
2022-12-11T15:48:29.873Z,11.27
2022-12-11T15:50:56.700Z,8.85
2022-12-11T15:53:23.420Z,7.07
2022-12-11T15:55:50.933Z,6.65
2022-12-11T15:58:23.325Z,7.60
2022-12-11T16:00:50.550Z,7.28
2022-12-11T16:03:19.426Z,7.85
2022-12-11T16:05:46.736Z,9.00
2022-12-11T16:08:15.811Z,10.70
2022-12-11T16:10:44.222Z,8.98
2022-12-11T16:13:12.306Z,10.25
2022-12-11T16:15:42.069Z,8.50
2022-12-11T16:18:11.797Z,8.95
2022-12-11T16:20:41.026Z,22.75
2022-12-11T16:23:08.472Z,15.52
2022-12-11T16:25:37.759Z,18.80
2022-12-11T16:28:04.825Z,18.10
2022-12-11T16:30:34.145Z,12.25
2022-12-11T16:33:01.182Z,10.10
2022-12-11T16:35:29.487Z,9.30
2022-12-11T16:37:56.346Z,8.60
2022-12-11T16:40:24.262Z,8.90
2022-12-11T16:42:51.117Z,9.05
2022-12-11T16:45:25.615Z,8.70
2022-12-11T16:47:53.237Z,9.55
2022-12-11T16:50:20.099Z,9.60
2022-12-11T16:52:47.402Z,10.07
2022-12-11T16:55:15.674Z,10.27
2022-12-11T16:57:42.706Z,10.38
2022-12-11T17:00:12.750Z,10.82
2022-12-11T17:02:40.166Z,10.20
2022-12-11T17:05:07.653Z,9.63
2022-12-11T17:07:37.594Z,12.88
2022-12-11T17:10:05.128Z,25.42
2022-12-11T17:12:31.998Z,15.98
2022-12-11T17:14:58.796Z,13.38
2022-12-11T17:17:26.131Z,14.55
2022-12-11T17:19:52.961Z,15.60
2022-12-11T17:22:19.842Z,15.80
2022-12-11T17:24:46.766Z,17.20
2022-12-11T17:27:13.783Z,18.67
2022-12-11T17:29:40.582Z,15.32
2022-12-11T17:32:08.197Z,12.93
2022-12-11T17:34:44.142Z,18.70
2022-12-11T17:37:14.006Z,16.95
2022-12-11T17:39:40.806Z,15.40
2022-12-11T17:42:08.558Z,14.68
2022-12-11T17:44:41.513Z,13.20
2022-12-11T17:47:11.242Z,11.25
2022-12-11T17:49:39.479Z,12.20
2022-12-11T17:52:06.403Z,13.23
2022-12-11T17:54:33.203Z,13.35
2022-12-11T17:56:59.998Z,13.43
2022-12-11T17:59:26.882Z,14.57
2022-12-11T18:01:53.781Z,13.57
2022-12-11T18:04:20.671Z,13.77
2022-12-11T18:06:47.532Z,13.25
2022-12-11T18:09:14.853Z,13.77
2022-12-11T18:11:41.761Z,12.95
2022-12-11T18:14:13.744Z,13.98
2022-12-11T18:16:43.551Z,14.05
2022-12-11T18:19:10.434Z,12.85
2022-12-11T18:21:41.348Z,18.60
2022-12-11T18:24:09.029Z,11.85
2022-12-11T18:26:37.452Z,14.57
2022-12-11T18:29:05.284Z,12.60
2022-12-11T18:31:32.564Z,17.45
2022-12-11T18:34:00.009Z,15.50
2022-12-11T18:36:27.668Z,15.82
2022-12-11T18:38:54.711Z,12.30
2022-12-11T18:41:21.508Z,11.48
2022-12-11T18:43:48.298Z,10.75
2022-12-11T18:46:17.781Z,10.73
2022-12-11T18:48:45.738Z,10.52
2022-12-11T18:51:17.559Z,10.10
2022-12-11T18:53:44.963Z,12.43
2022-12-11T18:56:15.112Z,10.82
2022-12-11T18:58:42.338Z,11.65
2022-12-11T19:01:16.603Z,10.88
2022-12-11T19:03:43.391Z,10.80
2022-12-11T19:06:22.485Z,10.38
2022-12-11T19:08:49.370Z,12.20
2022-12-11T19:11:18.628Z,14.52
2022-12-11T19:13:45.738Z,11.38
2022-12-11T19:16:22.436Z,10.80
2022-12-11T19:18:49.989Z,11.32
2022-12-11T19:21:18.705Z,13.88
2022-12-11T19:23:48.813Z,11.27
2022-12-11T19:26:19.989Z,11.20
2022-12-11T19:28:48.138Z,10.85
2022-12-11T19:31:17.799Z,10.13
2022-12-11T19:33:49.158Z,9.23
2022-12-11T19:36:18.842Z,8.52
2022-12-11T19:38:46.647Z,11.55
2022-12-11T19:41:20.118Z,7.45
2022-12-11T19:43:47.102Z,6.97
2022-12-11T19:46:15.422Z,6.95
2022-12-11T19:48:42.910Z,7.95
2022-12-11T19:51:13.092Z,5.50
2022-12-11T19:53:41.117Z,6.10
2022-12-11T19:56:08.504Z,7.30
2022-12-11T19:58:35.369Z,8.05
2022-12-11T20:01:02.655Z,7.18
2022-12-11T20:03:30.197Z,8.38
2022-12-11T20:06:04.321Z,8.60
2022-12-11T20:08:47.216Z,8.82
2022-12-11T20:11:18.774Z,9.35
2022-12-11T20:13:47.298Z,13.73
2022-12-11T20:16:15.461Z,11.80
2022-12-11T20:18:42.904Z,13.75
2022-12-11T20:21:13.477Z,10.15
2022-12-11T20:23:40.596Z,17.70
2022-12-11T20:26:15.642Z,25.08
2022-12-11T20:28:42.535Z,16.65
2022-12-11T20:31:20.355Z,8.73
2022-12-11T20:33:48.981Z,8.07
2022-12-11T20:36:17.397Z,7.05
2022-12-11T20:38:44.428Z,8.35
2022-12-11T20:41:17.120Z,6.90
2022-12-11T20:43:45.438Z,6.70
2022-12-11T20:46:17.393Z,7.15
2022-12-11T20:48:45.291Z,7.32
2022-12-11T20:51:13.961Z,7.95
2022-12-11T20:53:42.328Z,8.07
2022-12-11T20:56:18.821Z,7.32
2022-12-11T20:58:45.948Z,6.55
2022-12-11T21:01:23.496Z,7.82
2022-12-11T21:03:52.155Z,7.72
2022-12-11T21:06:34.179Z,9.65
2022-12-11T21:09:04.952Z,11.95
2022-12-11T21:11:31.875Z,15.27
2022-12-11T21:13:59.481Z,22.17
2022-12-11T21:16:26.621Z,26.98
2022-12-11T21:18:54.398Z,20.45
2022-12-11T21:21:21.389Z,14.60
2022-12-11T21:23:48.371Z,16.58
2022-12-11T21:26:15.448Z,12.88
2022-12-11T21:28:42.324Z,10.13
2022-12-11T21:31:15.722Z,9.57
2022-12-11T21:33:42.851Z,9.82
2022-12-11T21:36:12.232Z,10.20
2022-12-11T21:38:40.086Z,11.10
2022-12-11T21:41:13.708Z,10.07
2022-12-11T21:44:06.795Z,9.73
2022-12-11T21:46:29.274Z,10.18
2022-12-11T21:48:56.413Z,10.48
2022-12-11T21:51:29.752Z,10.73
2022-12-11T21:54:01.083Z,12.82
2022-12-11T21:56:33.149Z,11.80
2022-12-11T21:59:01.490Z,11.88
2022-12-11T22:01:32.250Z,10.95
2022-12-11T22:03:59.708Z,12.13
2022-12-11T22:06:26.745Z,12.40
2022-12-11T22:08:53.698Z,15.82
2022-12-11T22:11:24.651Z,13.45
2022-12-11T22:13:51.550Z,11.65
2022-12-11T22:16:18.993Z,12.80
2022-12-11T22:18:46.193Z,12.70
2022-12-11T22:21:14.068Z,12.52
2022-12-11T22:23:41.820Z,13.35
2022-12-11T22:26:11.869Z,13.80
2022-12-11T22:28:38.632Z,12.23
2022-12-11T22:31:09.171Z,12.18
2022-12-11T22:33:35.919Z,12.85
2022-12-11T22:36:02.664Z,11.30
2022-12-11T22:38:29.424Z,12.85
2022-12-11T22:40:56.627Z,12.00
2022-12-11T22:43:23.397Z,12.45
2022-12-11T22:45:50.956Z,14.50
2022-12-11T22:48:17.867Z,13.30
2022-12-11T22:50:44.596Z,12.63
2022-12-11T22:53:17.264Z,12.30
2022-12-11T22:55:44.186Z,11.45
2022-12-11T22:58:29.139Z,12.20
2022-12-11T23:00:56.638Z,10.85
2022-12-11T23:03:46.904Z,11.50
2022-12-11T23:06:16.278Z,12.13
2022-12-11T23:08:44.056Z,11.90
2022-12-11T23:11:34.869Z,12.23
2022-12-11T23:14:02.176Z,11.50
2022-12-11T23:16:29.726Z,12.32
2022-12-11T23:18:57.866Z,12.02
2022-12-11T23:21:26.354Z,11.38
2022-12-11T23:23:53.384Z,12.43
2022-12-11T23:26:21.544Z,11.95
2022-12-11T23:28:49.218Z,13.57
2022-12-11T23:31:17.276Z,14.20
2022-12-11T23:33:44.920Z,12.07
2022-12-11T23:36:12.902Z,12.48
2022-12-11T23:38:40.404Z,11.95
2022-12-11T23:41:09.914Z,12.63
2022-12-11T23:43:37.684Z,11.45
2022-12-11T23:46:07.684Z,12.10
2022-12-11T23:48:34.429Z,11.65
2022-12-11T23:51:02.348Z,11.25
2022-12-11T23:53:30.419Z,12.07
2022-12-11T23:56:02.145Z,11.88
2022-12-11T23:58:28.989Z,11.35
